createdAt,value
2022-09-12T00:01:19.562Z,15.48
2022-09-12T00:03:54.967Z,15.49
2022-09-12T00:06:31.303Z,15.45
2022-09-12T00:09:08.156Z,15.60
2022-09-12T00:11:45.699Z,15.69
2022-09-12T00:14:20.959Z,15.63
2022-09-12T00:16:58.448Z,15.55
2022-09-12T00:19:32.766Z,15.48
2022-09-12T00:22:06.840Z,15.56
2022-09-12T00:24:41.544Z,15.54
2022-09-12T00:27:16.931Z,15.40
2022-09-12T00:29:51.404Z,15.48
2022-09-12T00:32:25.463Z,15.54
2022-09-12T00:34:59.747Z,15.50
2022-09-12T00:37:33.789Z,15.48
2022-09-12T00:40:09.164Z,15.53
2022-09-12T00:42:44.611Z,15.46
2022-09-12T00:45:25.280Z,15.36
2022-09-12T00:48:04.483Z,15.37
2022-09-12T00:50:38.913Z,15.30
2022-09-12T00:53:13.063Z,15.51
2022-09-12T00:55:51.267Z,15.37
2022-09-12T00:58:31.307Z,15.55
2022-09-12T01:01:05.840Z,15.60
2022-09-12T01:03:40.135Z,15.52
2022-09-12T01:06:19.363Z,15.44
2022-09-12T01:08:55.376Z,15.36
2022-09-12T01:11:30.100Z,15.15
2022-09-12T01:14:09.014Z,15.31
2022-09-12T01:16:45.271Z,15.33
2022-09-12T01:19:42.249Z,15.35
2022-09-12T01:22:34.568Z,15.20
2022-09-12T01:25:15.123Z,15.20
2022-09-12T01:28:04.513Z,15.48
2022-09-12T01:30:52.407Z,15.29
2022-09-12T01:33:45.316Z,15.22
2022-09-12T01:36:40.467Z,15.22
2022-09-12T01:39:22.174Z,15.19
2022-09-12T01:42:10.236Z,15.20
2022-09-12T01:44:52.952Z,15.13
2022-09-12T01:47:35.204Z,15.05
2022-09-12T01:50:15.211Z,15.18
2022-09-12T01:52:54.716Z,15.06
2022-09-12T01:55:33.274Z,15.14
2022-09-12T01:58:11.945Z,15.14
2022-09-12T02:00:52.157Z,15.03
2022-09-12T02:03:32.417Z,15.01
2022-09-12T02:06:14.714Z,14.94
2022-09-12T02:08:53.253Z,14.84
2022-09-12T02:11:27.477Z,14.75
2022-09-12T02:14:07.691Z,14.56
2022-09-12T02:16:46.319Z,14.68
2022-09-12T02:19:24.607Z,14.72
2022-09-12T02:22:02.701Z,14.66
2022-09-12T02:24:40.527Z,14.42
2022-09-12T02:27:17.900Z,14.56
2022-09-12T02:29:52.994Z,14.48
2022-09-12T02:32:35.308Z,14.51
2022-09-12T02:35:18.435Z,14.35
2022-09-12T02:38:01.217Z,14.42
2022-09-12T02:40:37.232Z,14.48
2022-09-12T02:43:11.265Z,14.39
2022-09-12T02:45:45.882Z,14.60
2022-09-12T02:48:24.693Z,14.54
2022-09-12T02:51:00.408Z,14.33
2022-09-12T02:53:34.887Z,14.32
2022-09-12T02:56:15.342Z,14.41
2022-09-12T02:58:50.211Z,14.35
2022-09-12T03:01:32.599Z,14.29
2022-09-12T03:04:31.040Z,14.39
2022-09-12T03:07:14.880Z,14.30
2022-09-12T03:09:59.594Z,14.37
2022-09-12T03:12:47.163Z,14.35
2022-09-12T03:15:32.151Z,14.40
2022-09-12T03:18:19.371Z,14.24
2022-09-12T03:21:03.256Z,14.41
2022-09-12T03:23:46.398Z,14.29
2022-09-12T03:26:28.581Z,14.36
2022-09-12T03:29:05.060Z,14.20
2022-09-12T03:31:39.514Z,14.36
2022-09-12T03:34:13.917Z,14.19
2022-09-12T03:36:48.157Z,14.20
2022-09-12T03:39:26.475Z,14.32
2022-09-12T03:42:00.489Z,14.21
2022-09-12T03:44:34.840Z,14.11
2022-09-12T03:47:11.236Z,14.71
2022-09-12T03:49:46.784Z,14.23
2022-09-12T03:52:21.074Z,14.30
2022-09-12T03:54:56.721Z,14.30
2022-09-12T03:57:30.759Z,14.25
2022-09-12T04:00:06.988Z,14.24
2022-09-12T04:02:46.402Z,14.27
2022-09-12T04:05:20.763Z,14.18
2022-09-12T04:07:54.821Z,14.27
2022-09-12T04:10:30.646Z,14.20
2022-09-12T04:13:04.747Z,14.20
2022-09-12T04:15:39.134Z,14.37
2022-09-12T04:18:13.121Z,14.31
2022-09-12T04:20:47.480Z,14.19
2022-09-12T04:23:21.700Z,14.14
2022-09-12T04:25:58.262Z,14.18
2022-09-12T04:28:32.681Z,14.09
2022-09-12T04:31:09.232Z,14.01
2022-09-12T04:33:43.294Z,14.05
2022-09-12T04:36:19.204Z,14.13
2022-09-12T04:38:53.897Z,14.23
2022-09-12T04:41:31.302Z,14.34
2022-09-12T04:44:07.969Z,14.34
2022-09-12T04:46:44.784Z,14.39
2022-09-12T04:49:19.494Z,14.62
2022-09-12T04:51:55.004Z,15.02
2022-09-12T04:54:29.233Z,14.81
2022-09-12T04:57:05.264Z,14.67
2022-09-12T04:59:40.322Z,14.54
2022-09-12T05:02:14.704Z,14.49
2022-09-12T05:04:48.808Z,14.34
2022-09-12T05:07:23.241Z,14.41
2022-09-12T05:09:57.336Z,14.40
2022-09-12T05:12:33.287Z,14.31
2022-09-12T05:15:08.880Z,14.37
2022-09-12T05:17:43.176Z,14.86
2022-09-12T05:20:17.491Z,15.71
2022-09-12T05:22:51.810Z,16.19
2022-09-12T05:25:25.904Z,16.67
2022-09-12T05:28:01.971Z,17.07
2022-09-12T05:30:35.974Z,17.55
2022-09-12T05:33:10.516Z,17.54
2022-09-12T05:35:52.869Z,17.46
2022-09-12T05:38:29.156Z,16.72
2022-09-12T05:41:07.770Z,16.42
2022-09-12T05:43:45.256Z,16.06
2022-09-12T05:46:21.409Z,15.94
2022-09-12T05:48:57.344Z,15.76
2022-09-12T05:51:35.953Z,15.52
2022-09-12T05:54:12.672Z,15.57
2022-09-12T05:56:47.075Z,15.76
2022-09-12T05:59:24.106Z,15.73
2022-09-12T06:01:58.566Z,15.65
2022-09-12T06:04:32.884Z,15.77
2022-09-12T06:07:07.067Z,15.94
2022-09-12T06:09:41.723Z,15.77
2022-09-12T06:12:15.853Z,15.82
2022-09-12T06:14:51.572Z,15.84
2022-09-12T06:17:25.699Z,16.70
2022-09-12T06:20:00.048Z,16.41
2022-09-12T06:22:34.337Z,16.31
2022-09-12T06:25:10.060Z,16.35
2022-09-12T06:27:44.095Z,16.57
2022-09-12T06:30:24.761Z,16.60
2022-09-12T06:32:59.408Z,16.76
2022-09-12T06:35:37.408Z,16.75
2022-09-12T06:38:11.551Z,16.71
2022-09-12T06:40:46.047Z,16.77
2022-09-12T06:43:20.061Z,16.55
2022-09-12T06:45:56.688Z,16.75
2022-09-12T06:48:30.857Z,16.74
2022-09-12T06:51:07.330Z,16.88
2022-09-12T06:53:41.770Z,16.83
2022-09-12T06:56:19.007Z,16.88
2022-09-12T06:58:54.303Z,17.01
2022-09-12T07:01:32.225Z,17.08
2022-09-12T07:04:06.819Z,17.30
2022-09-12T07:06:44.632Z,17.08
2022-09-12T07:09:18.974Z,16.98
2022-09-12T07:11:53.358Z,17.10
2022-09-12T07:14:27.422Z,17.26
2022-09-12T07:17:03.181Z,17.17
2022-09-12T07:19:37.539Z,17.40
2022-09-12T07:22:12.371Z,17.54
2022-09-12T07:24:47.853Z,17.68
2022-09-12T07:27:22.740Z,17.65
2022-09-12T07:29:57.138Z,17.77
2022-09-12T07:32:32.864Z,17.94
2022-09-12T07:35:07.818Z,18.04
2022-09-12T07:37:42.334Z,18.09
2022-09-12T07:40:16.765Z,18.12
2022-09-12T07:42:51.093Z,18.13
2022-09-12T07:45:26.958Z,18.05
2022-09-12T07:48:03.153Z,17.96
2022-09-12T07:50:40.016Z,18.02
2022-09-12T07:53:16.412Z,17.99
2022-09-12T07:55:54.799Z,17.98
2022-09-12T07:58:29.220Z,18.13
2022-09-12T08:01:05.004Z,18.24
2022-09-12T08:03:41.335Z,18.28
2022-09-12T08:06:17.045Z,18.38
2022-09-12T08:08:52.488Z,18.60
2022-09-12T08:11:29.033Z,18.66
2022-09-12T08:14:05.660Z,18.92
2022-09-12T08:16:39.893Z,18.99
2022-09-12T08:19:15.693Z,19.05
2022-09-12T08:21:49.933Z,19.28
2022-09-12T08:24:25.010Z,19.23
2022-09-12T08:26:59.005Z,19.27
2022-09-12T08:29:33.400Z,19.38
2022-09-12T08:32:08.014Z,19.64
2022-09-12T08:34:43.681Z,19.82
2022-09-12T08:37:17.697Z,19.87
2022-09-12T08:39:52.804Z,20.13
2022-09-12T08:42:40.832Z,20.27
2022-09-12T08:45:21.420Z,20.36
2022-09-12T08:47:57.626Z,20.07
2022-09-12T08:50:33.661Z,20.35
2022-09-12T08:53:15.527Z,20.51
2022-09-12T08:55:54.860Z,20.40
2022-09-12T09:22:33.073Z,21.02
2022-09-12T09:25:14.369Z,20.99
2022-09-12T09:27:53.125Z,20.91
2022-09-12T09:30:28.716Z,21.11
2022-09-12T09:33:06.374Z,21.35
2022-09-12T09:35:46.406Z,21.56
2022-09-12T09:38:30.639Z,21.41
2022-09-12T09:41:21.408Z,21.46
2022-09-12T09:43:55.896Z,21.67
2022-09-12T09:46:35.944Z,21.80
2022-09-12T09:49:14.490Z,21.71
2022-09-12T09:51:49.474Z,21.71
2022-09-12T09:54:27.965Z,21.19
2022-09-12T09:57:05.297Z,21.35
2022-09-12T09:59:39.439Z,21.73
2022-09-12T10:02:24.274Z,21.80
2022-09-12T10:05:00.323Z,21.68
2022-09-12T10:07:34.529Z,21.23
2022-09-12T10:10:18.452Z,21.03
2022-09-12T10:12:53.376Z,20.98
2022-09-12T10:15:28.163Z,20.94
2022-09-12T10:18:03.165Z,20.91
2022-09-12T10:20:40.358Z,20.89
2022-09-12T10:23:31.144Z,20.91
2022-09-12T10:26:12.543Z,21.05
2022-09-12T10:28:50.601Z,20.99
2022-09-12T10:31:29.626Z,20.79
2022-09-12T10:34:05.717Z,20.92
2022-09-12T10:36:41.631Z,21.23
2022-09-12T10:39:19.957Z,21.75
2022-09-12T10:41:55.757Z,22.03
2022-09-12T10:44:31.890Z,21.77
2022-09-12T10:47:22.067Z,21.47
2022-09-12T10:50:23.265Z,21.11
2022-09-12T10:53:15.084Z,20.82
2022-09-12T10:56:09.108Z,20.65
2022-09-12T10:59:11.886Z,20.61
2022-09-12T11:01:49.925Z,20.28
2022-09-12T11:04:50.140Z,20.49
2022-09-12T11:07:39.247Z,20.96
2022-09-12T11:10:34.294Z,21.30
2022-09-12T11:13:28.334Z,21.24
2022-09-12T11:16:15.274Z,21.07
2022-09-12T11:19:05.726Z,21.01
2022-09-12T11:21:53.483Z,20.98
2022-09-12T11:24:40.835Z,20.89
2022-09-12T11:27:31.276Z,20.82
2022-09-12T11:30:07.648Z,20.78
2022-09-12T11:33:10.834Z,20.81
2022-09-12T11:35:54.985Z,20.68
2022-09-12T11:38:52.533Z,20.45
2022-09-12T11:41:34.064Z,20.52
2022-09-12T11:44:17.445Z,20.55
2022-09-12T11:46:52.407Z,20.38
2022-09-12T11:49:35.764Z,20.40
2022-09-12T11:52:16.448Z,20.34
2022-09-12T11:54:58.205Z,20.24
2022-09-12T11:57:38.340Z,20.47
2022-09-12T12:00:19.108Z,20.34
2022-09-12T12:03:06.032Z,20.24
2022-09-12T12:05:50.281Z,20.30
2022-09-12T12:08:27.648Z,20.76
2022-09-12T12:11:02.922Z,21.47
2022-09-12T12:13:41.083Z,21.99
2022-09-12T12:16:21.653Z,22.31
2022-09-12T12:18:58.818Z,22.31
2022-09-12T12:21:40.757Z,22.56
2022-09-12T12:24:19.011Z,22.93
2022-09-12T12:27:01.803Z,22.97
2022-09-12T12:29:44.156Z,23.00
2022-09-12T12:32:26.199Z,22.85
2022-09-12T12:35:40.013Z,22.56
2022-09-12T12:38:30.859Z,22.74
2022-09-12T12:41:38.683Z,23.05
2022-09-12T12:44:49.676Z,23.22
2022-09-12T12:47:27.580Z,23.18
2022-09-12T12:50:06.595Z,23.47
2022-09-12T12:52:49.331Z,23.56
2022-09-12T12:55:29.079Z,23.62
2022-09-12T12:58:05.091Z,23.36
2022-09-12T13:00:41.934Z,23.45
2022-09-12T13:03:30.368Z,23.49
2022-09-12T13:06:08.423Z,23.10
2022-09-12T13:08:47.737Z,22.87
2022-09-12T13:11:33.161Z,22.75
2022-09-12T13:14:09.744Z,22.53
2022-09-12T13:16:55.877Z,22.95
2022-09-12T13:19:32.973Z,23.43
2022-09-12T13:22:09.232Z,23.52
2022-09-12T13:24:48.999Z,23.53
2022-09-12T13:27:26.583Z,23.07
2022-09-12T13:30:09.197Z,22.58
2022-09-12T13:32:45.069Z,22.97
2022-09-12T13:35:27.641Z,22.99
2022-09-12T13:38:08.617Z,23.29
2022-09-12T13:41:00.129Z,23.11
2022-09-12T13:43:42.612Z,22.72
2022-09-12T13:46:25.081Z,22.33
2022-09-12T13:49:01.287Z,22.04
2022-09-12T13:51:35.756Z,22.22
2022-09-12T13:54:21.317Z,22.27
2022-09-12T13:56:59.747Z,22.09
2022-09-12T13:59:41.267Z,22.07
2022-09-12T14:02:20.960Z,21.98
2022-09-12T14:05:09.133Z,22.02
2022-09-12T14:07:54.456Z,21.95
2022-09-12T14:10:31.918Z,21.83
2022-09-12T14:13:12.652Z,21.79
2022-09-12T14:15:50.253Z,21.82
2022-09-12T14:18:27.235Z,21.75
2022-09-12T14:21:10.543Z,21.83
2022-09-12T14:23:48.173Z,21.95
2022-09-12T14:26:23.746Z,21.91
2022-09-12T14:28:58.016Z,21.98
2022-09-12T14:31:36.248Z,21.85
2022-09-12T14:34:12.642Z,21.88
2022-09-12T14:36:50.075Z,21.81
2022-09-12T14:39:29.741Z,21.76
2022-09-12T14:42:07.564Z,21.72
2022-09-12T14:44:44.793Z,21.64
2022-09-12T14:47:25.195Z,21.76
2022-09-12T14:49:59.571Z,21.84
2022-09-12T14:52:35.453Z,21.94
2022-09-12T14:55:23.931Z,21.92
2022-09-12T14:58:27.432Z,21.84
2022-09-12T15:01:03.912Z,21.90
2022-09-12T15:03:53.419Z,21.87
2022-09-12T15:06:31.555Z,21.96
2022-09-12T15:09:10.069Z,21.77
2022-09-12T15:11:44.067Z,21.84
2022-09-12T15:14:18.635Z,21.91
2022-09-12T15:16:52.689Z,21.85
2022-09-12T15:19:28.992Z,21.79
2022-09-12T15:22:03.185Z,21.72
2022-09-12T15:24:39.882Z,21.69
2022-09-12T15:27:14.073Z,21.56
2022-09-12T15:29:48.499Z,21.53
2022-09-12T15:32:25.096Z,21.70
2022-09-12T15:35:00.902Z,21.52
2022-09-12T15:37:35.156Z,21.37
2022-09-12T15:40:12.497Z,21.18
2022-09-12T15:42:46.646Z,21.22
2022-09-12T15:45:23.728Z,21.30
2022-09-12T15:47:58.630Z,21.32
2022-09-12T15:50:34.560Z,21.25
2022-09-12T15:53:11.361Z,21.08
2022-09-12T15:55:46.099Z,21.14
2022-09-12T15:58:20.267Z,20.88
2022-09-12T16:00:54.624Z,21.01
2022-09-12T16:03:31.016Z,20.94
2022-09-12T16:06:08.728Z,20.89
2022-09-12T16:08:43.422Z,20.89
2022-09-12T16:11:21.888Z,20.93
2022-09-12T16:13:57.181Z,20.78
2022-09-12T16:16:31.220Z,20.56
2022-09-12T16:19:05.761Z,20.65
2022-09-12T16:21:41.267Z,20.43
2022-09-12T16:24:15.653Z,20.50
2022-09-12T16:26:49.687Z,20.49
2022-09-12T16:29:24.294Z,20.45
2022-09-12T16:31:58.360Z,20.50
2022-09-12T16:34:32.695Z,20.43
2022-09-12T16:37:08.208Z,20.13
2022-09-12T16:39:42.644Z,20.18
2022-09-12T16:42:17.999Z,20.06
2022-09-12T16:44:52.532Z,19.89
2022-09-12T16:47:26.600Z,19.88
2022-09-12T16:50:01.051Z,19.88
2022-09-12T16:52:37.035Z,19.76
2022-09-12T16:55:11.503Z,19.67
2022-09-12T16:57:46.175Z,19.47
2022-09-12T17:00:21.075Z,19.46
2022-09-12T17:02:55.914Z,19.66
2022-09-12T17:05:30.526Z,19.44
2022-09-12T17:08:06.115Z,19.43
2022-09-12T17:10:42.463Z,19.26
2022-09-12T17:13:16.541Z,19.14
2022-09-12T17:15:51.465Z,19.17
2022-09-12T17:18:26.555Z,19.24
2022-09-12T17:21:01.158Z,19.07
2022-09-12T17:23:36.906Z,18.92
2022-09-12T17:26:12.178Z,18.96
2022-09-12T17:28:47.141Z,18.92
2022-09-12T17:31:21.634Z,18.93
2022-09-12T17:33:58.204Z,18.92
2022-09-12T17:36:33.092Z,18.96
2022-09-12T17:39:08.743Z,18.89
2022-09-12T17:41:44.039Z,18.87
2022-09-12T17:44:18.745Z,18.81
2022-09-12T17:46:53.179Z,18.87
2022-09-12T17:49:27.476Z,18.84
2022-09-12T17:52:02.072Z,18.65
2022-09-12T17:54:37.618Z,18.50
2022-09-12T17:57:12.192Z,18.34
2022-09-12T17:59:46.869Z,18.12
2022-09-12T18:02:20.318Z,17.99
2022-09-12T18:04:54.771Z,17.86
2022-09-12T18:07:29.141Z,17.88
2022-09-12T18:10:05.281Z,17.61
2022-09-12T18:12:39.377Z,17.58
2022-09-12T18:15:13.935Z,17.42
2022-09-12T18:17:48.074Z,17.46
2022-09-12T18:20:22.431Z,17.46
2022-09-12T18:22:56.750Z,17.78
2022-09-12T18:25:33.544Z,17.58
2022-09-12T18:28:09.270Z,17.45
2022-09-12T18:30:43.733Z,17.50
2022-09-12T18:33:21.934Z,17.39
2022-09-12T18:35:58.603Z,17.30
2022-09-12T18:38:33.328Z,18.26
2022-09-12T18:41:11.287Z,18.77
2022-09-12T18:43:45.711Z,19.06
2022-09-12T18:46:20.983Z,18.61
2022-09-12T18:48:57.781Z,18.03
2022-09-12T18:51:35.020Z,17.77
2022-09-12T18:54:13.382Z,17.57
2022-09-12T18:56:49.308Z,17.41
2022-09-12T18:59:24.233Z,17.32
2022-09-12T19:01:58.654Z,17.59
2022-09-12T19:04:33.007Z,17.42
2022-09-12T19:07:07.603Z,17.32
2022-09-12T19:09:41.874Z,17.23
2022-09-12T19:12:17.578Z,17.07
2022-09-12T19:14:51.619Z,17.37
2022-09-12T19:17:26.355Z,17.27
2022-09-12T19:20:00.498Z,17.77
2022-09-12T19:22:34.866Z,18.44
2022-09-12T19:25:09.952Z,18.81
2022-09-12T19:27:45.833Z,19.02
2022-09-12T19:30:19.946Z,19.06
2022-09-12T19:32:54.294Z,18.47
2022-09-12T19:35:28.446Z,18.07
2022-09-12T19:38:02.971Z,17.82
2022-09-12T19:40:38.064Z,17.47
2022-09-12T19:43:13.844Z,17.11
2022-09-12T19:45:48.878Z,16.90
2022-09-12T19:48:23.522Z,16.93
2022-09-12T19:51:00.815Z,17.02
2022-09-12T19:53:35.152Z,17.13
2022-09-12T19:56:11.990Z,17.16
2022-09-12T19:58:53.524Z,17.10
2022-09-12T20:01:30.146Z,17.08
2022-09-12T20:04:05.428Z,16.81
2022-09-12T20:06:39.542Z,16.79
2022-09-12T20:09:14.001Z,16.91
2022-09-12T20:11:48.029Z,16.83
2022-09-12T20:14:23.812Z,16.72
2022-09-12T20:16:57.869Z,16.85
2022-09-12T20:19:32.414Z,16.56
2022-09-12T20:22:07.474Z,16.61
2022-09-12T20:24:41.784Z,16.42
2022-09-12T20:27:15.823Z,16.09
2022-09-12T20:29:52.643Z,16.16
2022-09-12T20:32:28.419Z,16.13
2022-09-12T20:35:06.873Z,16.05
2022-09-12T20:37:41.261Z,16.10
2022-09-12T20:40:15.669Z,16.06
2022-09-12T20:42:49.706Z,16.02
2022-09-12T20:45:25.381Z,16.17
2022-09-12T20:47:59.657Z,16.23
2022-09-12T20:50:34.004Z,16.10
2022-09-12T20:53:08.038Z,16.04
2022-09-12T20:55:49.811Z,16.05
2022-09-12T20:58:24.777Z,16.13
2022-09-12T21:01:07.896Z,15.95
2022-09-12T21:03:43.463Z,16.23
2022-09-12T21:06:18.266Z,15.93
2022-09-12T21:08:52.620Z,16.05
2022-09-12T21:11:27.224Z,15.90
2022-09-12T21:14:01.196Z,15.98
2022-09-12T21:16:38.735Z,15.83
2022-09-12T21:19:12.843Z,15.78
2022-09-12T21:21:47.273Z,15.73
2022-09-12T21:24:21.494Z,15.72
2022-09-12T21:26:55.801Z,15.74
2022-09-12T21:29:30.001Z,15.80
2022-09-12T21:32:07.530Z,15.68
2022-09-12T21:34:43.081Z,15.64
2022-09-12T21:37:17.568Z,15.60
2022-09-12T21:39:51.652Z,15.71
2022-09-12T21:42:26.323Z,15.82
2022-09-12T21:45:00.349Z,15.78
2022-09-12T21:47:36.054Z,15.92
2022-09-12T21:50:11.008Z,15.94
2022-09-12T21:52:45.932Z,15.97
2022-09-12T21:55:20.304Z,15.81
2022-09-12T21:57:54.867Z,15.86
2022-09-12T22:00:28.959Z,15.80
2022-09-12T22:03:04.967Z,15.68
2022-09-12T22:05:40.326Z,15.45
2022-09-12T22:08:14.622Z,15.40
2022-09-12T22:10:48.721Z,15.32
2022-09-12T22:13:23.092Z,15.35
2022-09-12T22:15:57.246Z,15.41
2022-09-12T22:18:34.307Z,15.54
2022-09-12T22:21:12.349Z,15.48
2022-09-12T22:24:04.477Z,15.60
2022-09-12T22:26:43.339Z,15.68
2022-09-12T22:29:17.703Z,15.76
2022-09-12T22:31:51.769Z,15.69
2022-09-12T22:34:28.135Z,15.57
2022-09-12T22:37:02.181Z,15.57
2022-09-12T22:39:36.502Z,15.49
2022-09-12T22:42:10.673Z,15.39
2022-09-12T22:44:45.024Z,15.32
2022-09-12T22:47:20.109Z,15.20
2022-09-12T22:49:55.861Z,15.13
2022-09-12T22:52:29.918Z,15.20
2022-09-12T22:55:04.576Z,15.29
2022-09-12T22:57:38.991Z,15.27
2022-09-12T23:00:14.323Z,15.19
2022-09-12T23:02:48.338Z,15.17
2022-09-12T23:05:24.002Z,15.07
2022-09-12T23:07:58.419Z,14.98
2022-09-12T23:10:32.807Z,14.97
2022-09-12T23:13:06.830Z,14.77
2022-09-12T23:15:41.504Z,14.83
2022-09-12T23:18:15.571Z,14.70
2022-09-12T23:21:01.852Z,14.64
2022-09-12T23:23:37.973Z,14.52
2022-09-12T23:26:14.392Z,14.42
2022-09-12T23:28:50.657Z,14.37
2022-09-12T23:31:29.879Z,14.41
2022-09-12T23:34:06.967Z,14.63
2022-09-12T23:36:42.680Z,14.50
2022-09-12T23:39:16.850Z,14.43
2022-09-12T23:41:51.713Z,14.36
2022-09-12T23:44:25.943Z,14.31
2022-09-12T23:47:00.296Z,14.25
2022-09-12T23:49:34.691Z,14.34
2022-09-12T23:52:10.442Z,14.24
2022-09-12T23:54:44.802Z,14.22
2022-09-12T23:57:19.124Z,14.31
2022-09-12T23:59:53.201Z,14.31
